Allison, Colorado
Current Conditions -  °F | °C
As of 7:53 AM on Friday 19 Dec 2014 (Local Time) from KDRO Reporting Station
Overcast Overcast  
Wind Chill: 13°   Ceiling: 1000
Heat Index: 20°   Visibility: 10mi
Dew Point: 16°   Wind: 5mph
Humidity: 85%   Direction: 350°N
Pressure: 30.21"   Gusts: NA
Location:  37.0891°N, 107.649°W
Report Text: KDRO 191453Z AUTO 35004KT 10SM OVC010 M07/M09 A3021 RMK AO2 SLP277 T10671089 51013
Loading
Personal Weather Stations






























Interactive Weather Map New forecast layout! Learn more

10-Day Weather Forecast

Advertisements
Track Severe Weather on mobile